Wetterdaten: aktuell Sonntag, 21.09.2014 17:21
Datum Zeit Temperatur Feuchte Luftdruck Regen Wind Richtung Richtung Taupunkt Windchill
21.09.2014 17:21 17,0 C 70 % 1016,4 hPa 0,0 l/m 10,6 km/h (2 Bft) NW22.5 325 11,5 C 17,0 C
21.09.2014 16:21 18,0 C 71 % 1016,3 hPa 0,0 l/m 21,8 km/h (4 Bft) NW45 320 12,7 C 18,0 C
21.09.2014 15:21 17,2 C 80 % 1016,4 hPa 0,0 l/m 16,5 km/h (3 Bft) NW22.5 315 13,7 C 17,2 C
21.09.2014 14:21 16,4 C 89 % 1016,4 hPa 0,0 l/m 10,6 km/h (2 Bft) NW22.5 325 14,6 C 16,4 C
21.09.2014 13:21 16,6 C 92 % 1015,4 hPa 0,0 l/m 21,8 km/h (4 Bft) NW22.5 320 15,3 C 16,6 C
21.09.2014 12:21 15,4 C 97 % 1015,5 hPa 0,0 l/m 30,5 km/h (5 Bft) N-NW22.5 330 14,9 C 15,4 C
21.09.2014 11:21 15,0 C 97 % 1015,5 hPa 0,4 l/m 29,8 km/h (5 Bft) NW22.5 325 14,5 C 15,0 C
21.09.2014 10:21 15,4 C 97 % 1015,5 hPa 0,4 l/m 26,0 km/h (4 Bft) NW22.5 325 14,9 C 15,4 C
21.09.2014 09:21 15,8 C 96 % 1014,4 hPa 1,1 l/m 1,6 km/h (1 Bft) W-SW22.5 250 15,2 C 15,8 C
21.09.2014 08:21 15,7 C 96 % 1014,4 hPa 0,0 l/m 0,0 km/h (0 Bft) N-NW 330 15,1 C 15,7 C
21.09.2014 07:21 15,6 C 96 % 1013,4 hPa 0,0 l/m 7,1 km/h (2 Bft) NW22.5 320 15,0 C 15,6 C
21.09.2014 06:21 15,7 C 96 % 1013,4 hPa 0,0 l/m 5,4 km/h (1 Bft) NW22.5 315 15,1 C 15,7 C
21.09.2014 05:21 15,8 C 96 % 1013,4 hPa 0,0 l/m 8,8 km/h (2 Bft) N-NW 330 15,2 C 15,8 C
21.09.2014 04:18 16,3 C 95 % 1013,4 hPa 0,0 l/m 4,7 km/h (1 Bft) NW22.5 305 15,5 C 16,3 C
21.09.2014 03:18 16,4 C 94 % 1014,4 hPa 0,4 l/m 0,0 km/h (0 Bft) S 190 15,4 C 16,4 C
21.09.2014 02:18 16,4 C 93 % 1014,4 hPa 0,0 l/m 0,1 km/h (0 Bft) S-SO 150 15,3 C 16,4 C
21.09.2014 01:18 16,5 C 93 % 1014,4 hPa 0,0 l/m 0,0 km/h (0 Bft) S-SO 150 15,4 C 16,5 C
21.09.2014 00:18 16,3 C 91 % 1014,4 hPa 0,0 l/m 0,0 km/h (0 Bft) S-SO 150 14,8 C 16,3 C
20.09.2014 23:18 16,3 C 90 % 1014,4 hPa 0,0 l/m 1,9 km/h (1 Bft) S-SO 150 14,7 C 16,3 C
20.09.2014 22:18 16,4 C 88 % 1014,4 hPa 0,0 l/m 3,0 km/h (1 Bft) SO 140 14,4 C 16,4 C
20.09.2014 21:18 17,0 C 86 % 1014,3 hPa 0,0 l/m 4,0 km/h (1 Bft) O 95 14,6 C 17,0 C
20.09.2014 20:18 18,1 C 81 % 1013,2 hPa 0,0 l/m 4,3 km/h (1 Bft) O 95 14,8 C 18,1 C
20.09.2014 19:18 20,1 C 77 % 1013,1 hPa 0,0 l/m 8,1 km/h (2 Bft) N 360 15,9 C 20,1 C
20.09.2014 18:18 22,8 C 74 % 1012,8 hPa 0,0 l/m 3,1 km/h (1 Bft) W 260 17,9 C 22,8 C
20.09.2014 18:00 23,1 C 73 % 1011,8 hPa 0,0 l/m 9,1 km/h (2 Bft) W 265 18,0 C 23,1 C
_ Min-Zeit 11:36 16:54 18:00 - 18:51 - - 16:57 11:36
Minimum _ 14,8 C 68 % 1011,8 hPa - 0,0 km/h (0 Bft) - - 10,8 C 14,8 C
_ Max-Zeit 18:00 10:06 13:09 09:12 12:06 - - 18:21 18:00
Maximum _ 23,1 C 97 % 1016,5 hPa 0,7 l/m 34,0 km/h
N-NW (5 Bft)
- - 18,0 C 23,1 C
Durchschnitt _ 17,2 C 88 % 1014,3 hPa #2,2 l/m 8,8 km/h (2 Bft) NW - 15,1 C 17,2 C